sensor_id;sensor_type;location;lat;lon;timestamp;temperature;humidity
10411;DHT22;5251;52.112;8.606;2023-06-24T00:01:14;17.40;99.90
10411;DHT22;5251;52.112;8.606;2023-06-24T00:03:40;17.30;99.90
10411;DHT22;5251;52.112;8.606;2023-06-24T00:06:07;17.30;99.90
10411;DHT22;5251;52.112;8.606;2023-06-24T00:08:33;17.30;99.90
10411;DHT22;5251;52.112;8.606;2023-06-24T00:11:03;17.20;99.90
10411;DHT22;5251;52.112;8.606;2023-06-24T00:13:28;17.20;99.90
10411;DHT22;5251;52.112;8.606;2023-06-24T00:15:55;17.20;99.90
10411;DHT22;5251;52.112;8.606;2023-06-24T00:18:21;17.10;99.90
10411;DHT22;5251;52.112;8.606;2023-06-24T00:20:50;17.10;99.90
10411;DHT22;5251;52.112;8.606;2023-06-24T00:23:18;17.10;99.90
10411;DHT22;5251;52.112;8.606;2023-06-24T00:25:50;17.00;99.90
10411;DHT22;5251;52.112;8.606;2023-06-24T00:28:16;17.00;99.90
10411;DHT22;5251;52.112;8.606;2023-06-24T00:30:41;17.00;99.90
10411;DHT22;5251;52.112;8.606;2023-06-24T00:33:07;16.90;99.90
10411;DHT22;5251;52.112;8.606;2023-06-24T00:35:36;16.90;99.90
10411;DHT22;5251;52.112;8.606;2023-06-24T00:38:03;16.80;99.90
10411;DHT22;5251;52.112;8.606;2023-06-24T00:40:28;16.80;99.90
10411;DHT22;5251;52.112;8.606;2023-06-24T00:42:55;16.80;99.90
10411;DHT22;5251;52.112;8.606;2023-06-24T00:45:24;16.70;99.90
10411;DHT22;5251;52.112;8.606;2023-06-24T00:47:49;16.70;99.90
10411;DHT22;5251;52.112;8.606;2023-06-24T00:50:17;16.80;99.90
10411;DHT22;5251;52.112;8.606;2023-06-24T00:52:42;16.70;99.90
10411;DHT22;5251;52.112;8.606;2023-06-24T00:55:15;16.60;99.90
10411;DHT22;5251;52.112;8.606;2023-06-24T00:57:44;16.60;99.90
10411;DHT22;5251;52.112;8.606;2023-06-24T01:00:13;16.60;99.90
10411;DHT22;5251;52.112;8.606;2023-06-24T01:02:41;16.50;99.90
10411;DHT22;5251;52.112;8.606;2023-06-24T01:05:08;16.50;99.90
10411;DHT22;5251;52.112;8.606;2023-06-24T01:07:35;16.50;99.90
10411;DHT22;5251;52.112;8.606;2023-06-24T01:10:03;16.50;99.90
10411;DHT22;5251;52.112;8.606;2023-06-24T01:12:32;16.40;99.90
10411;DHT22;5251;52.112;8.606;2023-06-24T01:14:58;16.40;99.90
10411;DHT22;5251;52.112;8.606;2023-06-24T01:20:27;16.40;99.90
10411;DHT22;5251;52.112;8.606;2023-06-24T01:36:47;16.20;99.90
10411;DHT22;5251;52.112;8.606;2023-06-24T01:39:16;16.20;99.90
10411;DHT22;5251;52.112;8.606;2023-06-24T01:41:47;16.20;99.90
10411;DHT22;5251;52.112;8.606;2023-06-24T01:44:15;16.10;99.90
10411;DHT22;5251;52.112;8.606;2023-06-24T01:46:44;16.10;99.90
10411;DHT22;5251;52.112;8.606;2023-06-24T01:49:13;16.10;99.90
10411;DHT22;5251;52.112;8.606;2023-06-24T01:51:40;16.10;99.90
10411;DHT22;5251;52.112;8.606;2023-06-24T01:54:11;16.10;99.90
10411;DHT22;5251;52.112;8.606;2023-06-24T01:56:39;16.00;99.90
10411;DHT22;5251;52.112;8.606;2023-06-24T01:59:07;16.00;99.90
10411;DHT22;5251;52.112;8.606;2023-06-24T02:01:36;16.00;99.90
10411;DHT22;5251;52.112;8.606;2023-06-24T02:04:03;16.00;99.90
10411;DHT22;5251;52.112;8.606;2023-06-24T02:06:30;16.00;99.90
10411;DHT22;5251;52.112;8.606;2023-06-24T02:08:57;15.90;99.90
10411;DHT22;5251;52.112;8.606;2023-06-24T02:11:24;15.90;99.90
10411;DHT22;5251;52.112;8.606;2023-06-24T02:13:51;15.90;99.90
10411;DHT22;5251;52.112;8.606;2023-06-24T02:16:17;15.90;99.90
10411;DHT22;5251;52.112;8.606;2023-06-24T02:18:45;15.90;99.90
10411;DHT22;5251;52.112;8.606;2023-06-24T02:21:16;15.80;99.90
10411;DHT22;5251;52.112;8.606;2023-06-24T02:23:43;15.80;99.90
10411;DHT22;5251;52.112;8.606;2023-06-24T02:26:10;15.80;99.90
10411;DHT22;5251;52.112;8.606;2023-06-24T02:28:37;15.80;99.90
10411;DHT22;5251;52.112;8.606;2023-06-24T02:31:05;15.80;99.90
10411;DHT22;5251;52.112;8.606;2023-06-24T02:33:31;15.70;99.90
10411;DHT22;5251;52.112;8.606;2023-06-24T02:35:57;15.70;99.90
10411;DHT22;5251;52.112;8.606;2023-06-24T02:38:23;15.70;99.90
10411;DHT22;5251;52.112;8.606;2023-06-24T02:40:49;15.70;99.90
10411;DHT22;5251;52.112;8.606;2023-06-24T02:43:15;15.70;99.90
10411;DHT22;5251;52.112;8.606;2023-06-24T02:45:41;15.60;99.90
10411;DHT22;5251;52.112;8.606;2023-06-24T02:48:08;15.60;99.90
10411;DHT22;5251;52.112;8.606;2023-06-24T02:50:35;15.60;99.90
10411;DHT22;5251;52.112;8.606;2023-06-24T02:53:02;15.60;99.90
10411;DHT22;5251;52.112;8.606;2023-06-24T02:55:28;15.60;99.90
10411;DHT22;5251;52.112;8.606;2023-06-24T02:57:55;15.60;99.90
10411;DHT22;5251;52.112;8.606;2023-06-24T03:00:22;15.60;99.90
10411;DHT22;5251;52.112;8.606;2023-06-24T03:02:48;15.60;99.90
10411;DHT22;5251;52.112;8.606;2023-06-24T03:05:15;15.60;99.90
10411;DHT22;5251;52.112;8.606;2023-06-24T03:07:41;15.50;99.90
10411;DHT22;5251;52.112;8.606;2023-06-24T03:10:08;15.60;99.90
10411;DHT22;5251;52.112;8.606;2023-06-24T03:12:33;15.50;99.90
10411;DHT22;5251;52.112;8.606;2023-06-24T03:14:59;15.50;99.90
10411;DHT22;5251;52.112;8.606;2023-06-24T03:17:26;15.50;99.90
10411;DHT22;5251;52.112;8.606;2023-06-24T03:19:52;15.50;99.90
10411;DHT22;5251;52.112;8.606;2023-06-24T03:22:17;15.50;99.90
10411;DHT22;5251;52.112;8.606;2023-06-24T03:24:43;15.50;99.90
10411;DHT22;5251;52.112;8.606;2023-06-24T03:27:09;15.50;99.90
10411;DHT22;5251;52.112;8.606;2023-06-24T03:29:34;15.50;99.90
10411;DHT22;5251;52.112;8.606;2023-06-24T03:32:00;15.50;99.90
10411;DHT22;5251;52.112;8.606;2023-06-24T03:34:25;15.50;99.90
10411;DHT22;5251;52.112;8.606;2023-06-24T03:36:52;15.50;99.90
10411;DHT22;5251;52.112;8.606;2023-06-24T03:39:19;15.50;99.90
10411;DHT22;5251;52.112;8.606;2023-06-24T03:41:45;15.50;99.90
10411;DHT22;5251;52.112;8.606;2023-06-24T03:44:11;15.50;99.90
10411;DHT22;5251;52.112;8.606;2023-06-24T03:46:37;15.50;99.90
10411;DHT22;5251;52.112;8.606;2023-06-24T03:49:02;15.50;99.90
10411;DHT22;5251;52.112;8.606;2023-06-24T03:51:28;15.60;99.90
10411;DHT22;5251;52.112;8.606;2023-06-24T03:53:54;15.60;99.90
10411;DHT22;5251;52.112;8.606;2023-06-24T03:56:20;15.60;99.90
10411;DHT22;5251;52.112;8.606;2023-06-24T03:58:45;15.60;99.90
10411;DHT22;5251;52.112;8.606;2023-06-24T04:01:11;15.70;99.90
10411;DHT22;5251;52.112;8.606;2023-06-24T04:03:36;15.70;99.90
10411;DHT22;5251;52.112;8.606;2023-06-24T04:06:02;15.80;99.90
10411;DHT22;5251;52.112;8.606;2023-06-24T04:08:28;15.80;99.90
10411;DHT22;5251;52.112;8.606;2023-06-24T04:10:59;15.80;99.90
10411;DHT22;5251;52.112;8.606;2023-06-24T04:13:32;15.90;99.90
10411;DHT22;5251;52.112;8.606;2023-06-24T04:15:57;15.90;99.90
10411;DHT22;5251;52.112;8.606;2023-06-24T04:18:23;15.90;99.90
10411;DHT22;5251;52.112;8.606;2023-06-24T04:20:49;16.00;99.90
10411;DHT22;5251;52.112;8.606;2023-06-24T04:23:14;16.10;99.90
10411;DHT22;5251;52.112;8.606;2023-06-24T04:25:41;16.10;99.90
10411;DHT22;5251;52.112;8.606;2023-06-24T04:28:07;16.10;99.90
10411;DHT22;5251;52.112;8.606;2023-06-24T04:30:33;16.30;99.90
10411;DHT22;5251;52.112;8.606;2023-06-24T04:33:01;16.30;99.90
10411;DHT22;5251;52.112;8.606;2023-06-24T04:35:26;16.30;99.90
10411;DHT22;5251;52.112;8.606;2023-06-24T04:37:52;16.40;99.90
10411;DHT22;5251;52.112;8.606;2023-06-24T04:40:17;16.50;99.90
10411;DHT22;5251;52.112;8.606;2023-06-24T04:42:45;16.50;99.90
10411;DHT22;5251;52.112;8.606;2023-06-24T04:45:10;16.60;99.90
10411;DHT22;5251;52.112;8.606;2023-06-24T04:47:36;16.70;99.90
10411;DHT22;5251;52.112;8.606;2023-06-24T04:50:02;16.70;99.90
10411;DHT22;5251;52.112;8.606;2023-06-24T04:52:28;16.80;99.90
10411;DHT22;5251;52.112;8.606;2023-06-24T04:54:54;16.90;99.90
10411;DHT22;5251;52.112;8.606;2023-06-24T04:57:30;16.90;99.90
10411;DHT22;5251;52.112;8.606;2023-06-24T04:59:56;17.00;99.90
10411;DHT22;5251;52.112;8.606;2023-06-24T05:02:22;17.10;99.90
10411;DHT22;5251;52.112;8.606;2023-06-24T05:04:48;17.20;99.90
10411;DHT22;5251;52.112;8.606;2023-06-24T05:07:13;17.20;99.90
10411;DHT22;5251;52.112;8.606;2023-06-24T05:09:39;17.40;99.90
10411;DHT22;5251;52.112;8.606;2023-06-24T05:12:05;17.50;99.90
10411;DHT22;5251;52.112;8.606;2023-06-24T05:14:31;17.60;99.90
10411;DHT22;5251;52.112;8.606;2023-06-24T05:16:57;17.80;99.90
10411;DHT22;5251;52.112;8.606;2023-06-24T05:19:22;18.10;99.90
10411;DHT22;5251;52.112;8.606;2023-06-24T05:21:48;18.40;99.90
10411;DHT22;5251;52.112;8.606;2023-06-24T05:24:13;18.80;99.90
10411;DHT22;5251;52.112;8.606;2023-06-24T05:26:39;19.20;99.90
10411;DHT22;5251;52.112;8.606;2023-06-24T05:29:05;19.60;99.90
10411;DHT22;5251;52.112;8.606;2023-06-24T05:31:30;20.00;99.90
10411;DHT22;5251;52.112;8.606;2023-06-24T05:33:56;20.50;99.90
10411;DHT22;5251;52.112;8.606;2023-06-24T05:36:21;21.00;99.90
10411;DHT22;5251;52.112;8.606;2023-06-24T05:38:47;21.50;99.90
10411;DHT22;5251;52.112;8.606;2023-06-24T05:41:14;21.90;99.90
10411;DHT22;5251;52.112;8.606;2023-06-24T05:43:39;22.40;99.90
10411;DHT22;5251;52.112;8.606;2023-06-24T05:46:05;22.70;99.90
10411;DHT22;5251;52.112;8.606;2023-06-24T05:48:31;22.90;99.90
10411;DHT22;5251;52.112;8.606;2023-06-24T05:50:56;23.20;99.90
10411;DHT22;5251;52.112;8.606;2023-06-24T05:53:22;23.30;99.90
10411;DHT22;5251;52.112;8.606;2023-06-24T05:55:47;23.40;99.90
10411;DHT22;5251;52.112;8.606;2023-06-24T05:58:13;23.40;99.90
10411;DHT22;5251;52.112;8.606;2023-06-24T06:00:39;23.50;99.90
10411;DHT22;5251;52.112;8.606;2023-06-24T06:03:04;23.50;99.90
10411;DHT22;5251;52.112;8.606;2023-06-24T06:05:30;23.40;99.90
10411;DHT22;5251;52.112;8.606;2023-06-24T06:07:55;23.40;99.90
10411;DHT22;5251;52.112;8.606;2023-06-24T06:10:21;23.40;99.90
10411;DHT22;5251;52.112;8.606;2023-06-24T06:12:47;23.30;99.90
10411;DHT22;5251;52.112;8.606;2023-06-24T06:15:13;23.30;99.90
10411;DHT22;5251;52.112;8.606;2023-06-24T06:17:38;23.20;99.90
10411;DHT22;5251;52.112;8.606;2023-06-24T06:20:05;23.10;99.90
10411;DHT22;5251;52.112;8.606;2023-06-24T06:22:30;23.20;99.90
10411;DHT22;5251;52.112;8.606;2023-06-24T06:24:57;23.10;99.90
10411;DHT22;5251;52.112;8.606;2023-06-24T06:27:23;23.10;99.90
10411;DHT22;5251;52.112;8.606;2023-06-24T06:29:48;23.10;99.90
10411;DHT22;5251;52.112;8.606;2023-06-24T06:32:14;23.10;99.90
10411;DHT22;5251;52.112;8.606;2023-06-24T06:34:39;23.10;99.90
10411;DHT22;5251;52.112;8.606;2023-06-24T06:37:05;23.10;99.90
10411;DHT22;5251;52.112;8.606;2023-06-24T06:39:31;23.10;99.90
10411;DHT22;5251;52.112;8.606;2023-06-24T06:41:56;23.10;99.90
10411;DHT22;5251;52.112;8.606;2023-06-24T06:44:22;23.10;99.90
10411;DHT22;5251;52.112;8.606;2023-06-24T06:46:48;23.20;99.90
10411;DHT22;5251;52.112;8.606;2023-06-24T06:49:13;23.20;99.90
10411;DHT22;5251;52.112;8.606;2023-06-24T06:51:39;23.20;99.90
10411;DHT22;5251;52.112;8.606;2023-06-24T06:54:04;23.30;99.90
10411;DHT22;5251;52.112;8.606;2023-06-24T06:56:30;23.40;99.90
10411;DHT22;5251;52.112;8.606;2023-06-24T06:58:55;23.40;99.90
10411;DHT22;5251;52.112;8.606;2023-06-24T07:01:21;23.50;99.90
10411;DHT22;5251;52.112;8.606;2023-06-24T07:03:48;23.60;99.90
10411;DHT22;5251;52.112;8.606;2023-06-24T07:06:14;23.60;99.90
10411;DHT22;5251;52.112;8.606;2023-06-24T07:08:40;23.70;99.90
10411;DHT22;5251;52.112;8.606;2023-06-24T07:11:05;23.80;99.90
10411;DHT22;5251;52.112;8.606;2023-06-24T07:13:31;23.80;99.90
10411;DHT22;5251;52.112;8.606;2023-06-24T07:15:56;23.90;99.90
10411;DHT22;5251;52.112;8.606;2023-06-24T07:18:22;24.00;99.90
10411;DHT22;5251;52.112;8.606;2023-06-24T07:20:48;24.00;99.90
10411;DHT22;5251;52.112;8.606;2023-06-24T07:23:14;24.10;99.90
10411;DHT22;5251;52.112;8.606;2023-06-24T07:25:40;24.20;99.90
10411;DHT22;5251;52.112;8.606;2023-06-24T07:28:05;24.30;99.90
10411;DHT22;5251;52.112;8.606;2023-06-24T07:30:31;24.40;99.90
10411;DHT22;5251;52.112;8.606;2023-06-24T07:32:56;24.40;99.90
10411;DHT22;5251;52.112;8.606;2023-06-24T07:35:22;24.50;99.90
10411;DHT22;5251;52.112;8.606;2023-06-24T07:37:48;24.60;99.90
10411;DHT22;5251;52.112;8.606;2023-06-24T07:40:14;24.70;99.90
10411;DHT22;5251;52.112;8.606;2023-06-24T07:42:41;24.80;99.90
10411;DHT22;5251;52.112;8.606;2023-06-24T07:45:07;24.90;99.90
10411;DHT22;5251;52.112;8.606;2023-06-24T07:47:32;24.90;99.90
10411;DHT22;5251;52.112;8.606;2023-06-24T07:49:58;25.00;99.90
10411;DHT22;5251;52.112;8.606;2023-06-24T07:52:23;25.10;99.90
10411;DHT22;5251;52.112;8.606;2023-06-24T07:54:49;25.20;99.90
10411;DHT22;5251;52.112;8.606;2023-06-24T07:57:15;25.30;99.90
10411;DHT22;5251;52.112;8.606;2023-06-24T07:59:40;25.40;99.90
10411;DHT22;5251;52.112;8.606;2023-06-24T08:02:06;25.50;99.90
10411;DHT22;5251;52.112;8.606;2023-06-24T08:04:32;25.60;99.90
10411;DHT22;5251;52.112;8.606;2023-06-24T08:06:58;25.70;99.90
10411;DHT22;5251;52.112;8.606;2023-06-24T08:09:23;25.80;99.90
10411;DHT22;5251;52.112;8.606;2023-06-24T08:11:49;25.90;99.90
10411;DHT22;5251;52.112;8.606;2023-06-24T08:14:14;26.00;99.90
10411;DHT22;5251;52.112;8.606;2023-06-24T08:16:40;26.00;99.90
10411;DHT22;5251;52.112;8.606;2023-06-24T08:19:05;26.10;99.90
10411;DHT22;5251;52.112;8.606;2023-06-24T08:21:31;26.20;99.90
10411;DHT22;5251;52.112;8.606;2023-06-24T08:23:56;26.20;99.90
10411;DHT22;5251;52.112;8.606;2023-06-24T08:26:22;26.30;99.90
10411;DHT22;5251;52.112;8.606;2023-06-24T08:28:48;26.40;99.90
10411;DHT22;5251;52.112;8.606;2023-06-24T08:31:14;26.50;99.90
10411;DHT22;5251;52.112;8.606;2023-06-24T08:33:44;26.60;99.90
10411;DHT22;5251;52.112;8.606;2023-06-24T08:36:10;26.60;99.90
10411;DHT22;5251;52.112;8.606;2023-06-24T08:38:36;26.70;99.90
10411;DHT22;5251;52.112;8.606;2023-06-24T08:41:02;26.80;99.90
10411;DHT22;5251;52.112;8.606;2023-06-24T08:43:27;26.90;99.90
10411;DHT22;5251;52.112;8.606;2023-06-24T08:45:54;26.90;99.90
10411;DHT22;5251;52.112;8.606;2023-06-24T08:48:20;27.00;99.90
10411;DHT22;5251;52.112;8.606;2023-06-24T08:50:51;27.00;99.90
10411;DHT22;5251;52.112;8.606;2023-06-24T08:53:18;27.10;99.90
10411;DHT22;5251;52.112;8.606;2023-06-24T08:55:46;27.10;99.90
10411;DHT22;5251;52.112;8.606;2023-06-24T08:58:12;27.20;99.90
10411;DHT22;5251;52.112;8.606;2023-06-24T09:00:38;27.20;99.90
10411;DHT22;5251;52.112;8.606;2023-06-24T09:03:04;27.20;99.90
10411;DHT22;5251;52.112;8.606;2023-06-24T09:05:30;27.30;99.80
10411;DHT22;5251;52.112;8.606;2023-06-24T09:07:56;27.30;99.90
10411;DHT22;5251;52.112;8.606;2023-06-24T09:10:34;27.30;99.90
10411;DHT22;5251;52.112;8.606;2023-06-24T09:13:01;27.40;99.90
10411;DHT22;5251;52.112;8.606;2023-06-24T09:15:37;27.40;99.90
10411;DHT22;5251;52.112;8.606;2023-06-24T09:18:04;27.40;99.90
10411;DHT22;5251;52.112;8.606;2023-06-24T09:20:31;27.50;98.20
10411;DHT22;5251;52.112;8.606;2023-06-24T09:22:58;27.50;99.80
10411;DHT22;5251;52.112;8.606;2023-06-24T09:25:24;27.50;99.50
10411;DHT22;5251;52.112;8.606;2023-06-24T09:27:50;27.60;98.80
10411;DHT22;5251;52.112;8.606;2023-06-24T09:30:19;27.60;98.20
10411;DHT22;5251;52.112;8.606;2023-06-24T09:32:46;27.60;96.40
10411;DHT22;5251;52.112;8.606;2023-06-24T09:35:13;27.60;98.90
10411;DHT22;5251;52.112;8.606;2023-06-24T09:37:38;27.60;96.70
10411;DHT22;5251;52.112;8.606;2023-06-24T09:40:04;27.70;97.70
10411;DHT22;5251;52.112;8.606;2023-06-24T09:42:32;27.70;96.10
10411;DHT22;5251;52.112;8.606;2023-06-24T09:44:57;27.70;95.90
10411;DHT22;5251;52.112;8.606;2023-06-24T09:47:23;27.70;94.60
10411;DHT22;5251;52.112;8.606;2023-06-24T09:49:53;27.70;95.10
10411;DHT22;5251;52.112;8.606;2023-06-24T09:52:20;27.70;96.10
10411;DHT22;5251;52.112;8.606;2023-06-24T09:54:50;27.70;96.50
10411;DHT22;5251;52.112;8.606;2023-06-24T09:57:24;27.80;96.60
10411;DHT22;5251;52.112;8.606;2023-06-24T09:59:51;27.80;98.40
10411;DHT22;5251;52.112;8.606;2023-06-24T10:02:18;27.80;97.80
10411;DHT22;5251;52.112;8.606;2023-06-24T10:04:45;27.90;98.10
10411;DHT22;5251;52.112;8.606;2023-06-24T10:07:12;27.90;95.80
10411;DHT22;5251;52.112;8.606;2023-06-24T10:09:38;28.00;93.30
10411;DHT22;5251;52.112;8.606;2023-06-24T10:12:04;28.00;91.30
10411;DHT22;5251;52.112;8.606;2023-06-24T10:14:30;28.00;91.30
10411;DHT22;5251;52.112;8.606;2023-06-24T10:17:05;28.00;91.30
10411;DHT22;5251;52.112;8.606;2023-06-24T10:19:38;28.00;90.50
10411;DHT22;5251;52.112;8.606;2023-06-24T10:22:07;28.00;92.40
10411;DHT22;5251;52.112;8.606;2023-06-24T10:24:36;28.10;94.00
10411;DHT22;5251;52.112;8.606;2023-06-24T10:27:09;28.10;93.30
10411;DHT22;5251;52.112;8.606;2023-06-24T10:29:39;28.20;94.90
10411;DHT22;5251;52.112;8.606;2023-06-24T10:32:08;28.20;95.60
10411;DHT22;5251;52.112;8.606;2023-06-24T10:37:04;28.30;94.10
10411;DHT22;5251;52.112;8.606;2023-06-24T10:39:57;28.30;95.10
10411;DHT22;5251;52.112;8.606;2023-06-24T10:44:54;28.50;93.20
10411;DHT22;5251;52.112;8.606;2023-06-24T10:47:21;28.50;94.30
10411;DHT22;5251;52.112;8.606;2023-06-24T10:49:46;28.60;94.60
10411;DHT22;5251;52.112;8.606;2023-06-24T10:52:12;28.60;94.40
10411;DHT22;5251;52.112;8.606;2023-06-24T10:54:39;28.80;95.60
10411;DHT22;5251;52.112;8.606;2023-06-24T10:57:05;28.80;92.60
10411;DHT22;5251;52.112;8.606;2023-06-24T10:59:35;28.90;93.50
10411;DHT22;5251;52.112;8.606;2023-06-24T11:02:00;29.10;94.90
10411;DHT22;5251;52.112;8.606;2023-06-24T11:04:26;29.20;94.20
10411;DHT22;5251;52.112;8.606;2023-06-24T11:06:58;29.30;92.00
10411;DHT22;5251;52.112;8.606;2023-06-24T11:09:24;29.30;92.70
10411;DHT22;5251;52.112;8.606;2023-06-24T11:11:50;29.30;90.40
10411;DHT22;5251;52.112;8.606;2023-06-24T11:14:16;29.30;90.90
10411;DHT22;5251;52.112;8.606;2023-06-24T11:16:41;29.30;89.40
10411;DHT22;5251;52.112;8.606;2023-06-24T11:19:08;29.20;90.70
10411;DHT22;5251;52.112;8.606;2023-06-24T11:21:34;29.30;90.00
10411;DHT22;5251;52.112;8.606;2023-06-24T11:24:03;29.20;91.20
10411;DHT22;5251;52.112;8.606;2023-06-24T11:26:29;29.20;89.50
10411;DHT22;5251;52.112;8.606;2023-06-24T11:28:55;29.20;86.80
10411;DHT22;5251;52.112;8.606;2023-06-24T11:31:27;29.20;85.70
10411;DHT22;5251;52.112;8.606;2023-06-24T11:33:52;29.10;86.40
10411;DHT22;5251;52.112;8.606;2023-06-24T11:36:22;29.10;86.80
10411;DHT22;5251;52.112;8.606;2023-06-24T11:38:48;29.00;87.60
10411;DHT22;5251;52.112;8.606;2023-06-24T11:41:14;29.00;86.80
10411;DHT22;5251;52.112;8.606;2023-06-24T11:43:45;28.90;86.00
10411;DHT22;5251;52.112;8.606;2023-06-24T11:46:20;28.90;85.90
10411;DHT22;5251;52.112;8.606;2023-06-24T11:48:45;28.90;90.10
10411;DHT22;5251;52.112;8.606;2023-06-24T11:51:14;28.90;82.90
10411;DHT22;5251;52.112;8.606;2023-06-24T11:53:43;28.90;86.60
10411;DHT22;5251;52.112;8.606;2023-06-24T11:56:11;29.00;91.20
10411;DHT22;5251;52.112;8.606;2023-06-24T11:58:37;29.10;90.30
10411;DHT22;5251;52.112;8.606;2023-06-24T12:01:03;29.10;87.50
10411;DHT22;5251;52.112;8.606;2023-06-24T12:03:32;29.10;91.30
10411;DHT22;5251;52.112;8.606;2023-06-24T12:05:59;29.10;91.30
10411;DHT22;5251;52.112;8.606;2023-06-24T12:08:25;29.20;90.50
10411;DHT22;5251;52.112;8.606;2023-06-24T12:10:51;29.20;89.30
10411;DHT22;5251;52.112;8.606;2023-06-24T12:13:18;29.20;90.90
10411;DHT22;5251;52.112;8.606;2023-06-24T12:15:43;29.30;91.10
10411;DHT22;5251;52.112;8.606;2023-06-24T12:18:09;29.30;87.80
10411;DHT22;5251;52.112;8.606;2023-06-24T12:20:35;29.40;84.00
10411;DHT22;5251;52.112;8.606;2023-06-24T12:23:02;29.50;91.10
10411;DHT22;5251;52.112;8.606;2023-06-24T12:25:29;29.50;90.60
10411;DHT22;5251;52.112;8.606;2023-06-24T12:27:54;29.60;92.10
10411;DHT22;5251;52.112;8.606;2023-06-24T12:30:20;29.70;90.10
10411;DHT22;5251;52.112;8.606;2023-06-24T12:32:49;29.80;91.20
10411;DHT22;5251;52.112;8.606;2023-06-24T12:35:15;29.90;88.70
10411;DHT22;5251;52.112;8.606;2023-06-24T12:37:40;29.90;90.60
10411;DHT22;5251;52.112;8.606;2023-06-24T12:40:06;30.00;90.20
10411;DHT22;5251;52.112;8.606;2023-06-24T12:42:32;30.00;88.80
10411;DHT22;5251;52.112;8.606;2023-06-24T12:44:59;30.00;90.40
10411;DHT22;5251;52.112;8.606;2023-06-24T12:47:25;30.10;88.10
10411;DHT22;5251;52.112;8.606;2023-06-24T12:49:51;30.00;90.10
10411;DHT22;5251;52.112;8.606;2023-06-24T12:52:18;30.00;88.40
10411;DHT22;5251;52.112;8.606;2023-06-24T12:54:43;30.00;82.40
10411;DHT22;5251;52.112;8.606;2023-06-24T12:57:09;30.00;77.10
10411;DHT22;5251;52.112;8.606;2023-06-24T12:59:34;29.90;78.20
10411;DHT22;5251;52.112;8.606;2023-06-24T13:02:00;29.90;81.00
10411;DHT22;5251;52.112;8.606;2023-06-24T13:04:26;29.90;79.10
10411;DHT22;5251;52.112;8.606;2023-06-24T13:06:52;30.00;85.50
10411;DHT22;5251;52.112;8.606;2023-06-24T13:09:18;30.00;84.90
10411;DHT22;5251;52.112;8.606;2023-06-24T13:11:44;30.00;87.50
10411;DHT22;5251;52.112;8.606;2023-06-24T13:14:09;30.10;86.20
10411;DHT22;5251;52.112;8.606;2023-06-24T13:16:39;30.10;89.70
10411;DHT22;5251;52.112;8.606;2023-06-24T13:19:04;30.20;83.40
10411;DHT22;5251;52.112;8.606;2023-06-24T13:21:30;30.40;81.60
10411;DHT22;5251;52.112;8.606;2023-06-24T13:23:55;30.50;83.30
10411;DHT22;5251;52.112;8.606;2023-06-24T13:26:21;30.60;83.10
10411;DHT22;5251;52.112;8.606;2023-06-24T13:28:47;30.70;81.40
10411;DHT22;5251;52.112;8.606;2023-06-24T13:31:14;30.80;81.00
10411;DHT22;5251;52.112;8.606;2023-06-24T13:33:40;30.90;80.10
10411;DHT22;5251;52.112;8.606;2023-06-24T13:36:07;31.00;79.80
10411;DHT22;5251;52.112;8.606;2023-06-24T13:38:37;31.10;76.40
10411;DHT22;5251;52.112;8.606;2023-06-24T13:41:02;31.10;73.60
10411;DHT22;5251;52.112;8.606;2023-06-24T13:43:28;31.20;68.50
10411;DHT22;5251;52.112;8.606;2023-06-24T13:45:54;31.20;77.70
10411;DHT22;5251;52.112;8.606;2023-06-24T13:48:20;31.20;73.40
10411;DHT22;5251;52.112;8.606;2023-06-24T13:50:45;31.20;78.70
10411;DHT22;5251;52.112;8.606;2023-06-24T13:53:11;31.20;74.60
10411;DHT22;5251;52.112;8.606;2023-06-24T13:55:36;31.20;78.10
10411;DHT22;5251;52.112;8.606;2023-06-24T13:58:02;31.20;76.00
10411;DHT22;5251;52.112;8.606;2023-06-24T14:00:28;31.20;78.20
10411;DHT22;5251;52.112;8.606;2023-06-24T14:02:53;31.20;75.50
10411;DHT22;5251;52.112;8.606;2023-06-24T14:05:19;31.20;76.00
10411;DHT22;5251;52.112;8.606;2023-06-24T14:07:45;31.10;76.80
10411;DHT22;5251;52.112;8.606;2023-06-24T14:10:10;31.10;74.70
10411;DHT22;5251;52.112;8.606;2023-06-24T14:12:37;31.10;76.10
10411;DHT22;5251;52.112;8.606;2023-06-24T14:15:03;31.10;70.80
10411;DHT22;5251;52.112;8.606;2023-06-24T14:17:29;31.10;72.30
10411;DHT22;5251;52.112;8.606;2023-06-24T14:19:54;31.00;68.50
10411;DHT22;5251;52.112;8.606;2023-06-24T14:22:20;31.00;73.70
10411;DHT22;5251;52.112;8.606;2023-06-24T14:24:48;30.90;70.20
10411;DHT22;5251;52.112;8.606;2023-06-24T14:27:13;30.90;67.40
10411;DHT22;5251;52.112;8.606;2023-06-24T14:29:39;30.80;72.70
10411;DHT22;5251;52.112;8.606;2023-06-24T14:32:05;30.80;69.20
10411;DHT22;5251;52.112;8.606;2023-06-24T14:34:30;30.70;71.00
10411;DHT22;5251;52.112;8.606;2023-06-24T14:36:56;30.60;74.60
10411;DHT22;5251;52.112;8.606;2023-06-24T14:39:21;30.60;77.40
10411;DHT22;5251;52.112;8.606;2023-06-24T14:41:47;30.60;76.20
10411;DHT22;5251;52.112;8.606;2023-06-24T14:44:13;30.60;75.10
10411;DHT22;5251;52.112;8.606;2023-06-24T14:46:38;30.50;78.10
10411;DHT22;5251;52.112;8.606;2023-06-24T14:49:04;30.50;79.50
10411;DHT22;5251;52.112;8.606;2023-06-24T14:51:29;30.40;73.30
10411;DHT22;5251;52.112;8.606;2023-06-24T14:53:55;30.40;79.20
10411;DHT22;5251;52.112;8.606;2023-06-24T14:56:21;30.40;76.50
10411;DHT22;5251;52.112;8.606;2023-06-24T14:58:46;30.30;73.80
10411;DHT22;5251;52.112;8.606;2023-06-24T15:01:12;30.30;74.60
10411;DHT22;5251;52.112;8.606;2023-06-24T15:03:37;30.30;76.40
10411;DHT22;5251;52.112;8.606;2023-06-24T15:06:03;30.30;76.80
10411;DHT22;5251;52.112;8.606;2023-06-24T15:08:29;30.30;76.20
10411;DHT22;5251;52.112;8.606;2023-06-24T15:10:54;30.30;81.60
10411;DHT22;5251;52.112;8.606;2023-06-24T15:13:20;30.30;81.40
10411;DHT22;5251;52.112;8.606;2023-06-24T15:15:45;30.30;80.50
10411;DHT22;5251;52.112;8.606;2023-06-24T15:18:11;30.30;73.00
10411;DHT22;5251;52.112;8.606;2023-06-24T15:20:37;30.30;75.30
10411;DHT22;5251;52.112;8.606;2023-06-24T15:23:02;30.30;77.80
10411;DHT22;5251;52.112;8.606;2023-06-24T15:25:29;30.30;72.10
10411;DHT22;5251;52.112;8.606;2023-06-24T15:27:54;30.30;72.10
10411;DHT22;5251;52.112;8.606;2023-06-24T15:30:20;30.30;69.70
10411;DHT22;5251;52.112;8.606;2023-06-24T15:32:46;30.20;70.10
10411;DHT22;5251;52.112;8.606;2023-06-24T15:35:12;30.20;69.60
10411;DHT22;5251;52.112;8.606;2023-06-24T15:37:38;30.20;75.80
10411;DHT22;5251;52.112;8.606;2023-06-24T15:40:04;30.30;76.70
10411;DHT22;5251;52.112;8.606;2023-06-24T15:42:30;30.30;81.10
10411;DHT22;5251;52.112;8.606;2023-06-24T15:44:56;30.40;78.40
10411;DHT22;5251;52.112;8.606;2023-06-24T15:47:21;30.50;79.00
10411;DHT22;5251;52.112;8.606;2023-06-24T15:49:47;30.50;77.90
10411;DHT22;5251;52.112;8.606;2023-06-24T15:52:13;30.60;77.00
10411;DHT22;5251;52.112;8.606;2023-06-24T15:54:38;30.70;77.70
10411;DHT22;5251;52.112;8.606;2023-06-24T15:57:04;30.80;78.20
10411;DHT22;5251;52.112;8.606;2023-06-24T15:59:30;30.80;72.20
10411;DHT22;5251;52.112;8.606;2023-06-24T16:01:55;30.90;75.10